sensor_id;sensor_type;location;lat;lon;timestamp;P1;durP1;ratioP1;P2;durP2;ratioP2
37309;SDS011;23195;47.744;7.358;2024-02-23T00:01:05;1.70;;;0.60;;
37309;SDS011;23195;47.744;7.358;2024-02-23T00:03:31;0.80;;;0.50;;
37309;SDS011;23195;47.744;7.358;2024-02-23T00:06:01;1.03;;;0.53;;
37309;SDS011;23195;47.744;7.358;2024-02-23T00:08:30;4.40;;;0.60;;
37309;SDS011;23195;47.744;7.358;2024-02-23T00:10:56;1.67;;;0.70;;
37309;SDS011;23195;47.744;7.358;2024-02-23T00:13:21;1.37;;;0.70;;
37309;SDS011;23195;47.744;7.358;2024-02-23T00:15:48;2.27;;;0.80;;
37309;SDS011;23195;47.744;7.358;2024-02-23T00:18:14;3.60;;;0.60;;
37309;SDS011;23195;47.744;7.358;2024-02-23T00:20:42;3.20;;;0.60;;
37309;SDS011;23195;47.744;7.358;2024-02-23T00:23:08;2.80;;;0.47;;
37309;SDS011;23195;47.744;7.358;2024-02-23T00:25:33;3.03;;;0.50;;
37309;SDS011;23195;47.744;7.358;2024-02-23T00:27:59;4.23;;;0.60;;
37309;SDS011;23195;47.744;7.358;2024-02-23T00:30:28;1.97;;;0.70;;
37309;SDS011;23195;47.744;7.358;2024-02-23T00:32:54;4.53;;;0.67;;
37309;SDS011;23195;47.744;7.358;2024-02-23T00:35:20;4.67;;;0.70;;
37309;SDS011;23195;47.744;7.358;2024-02-23T00:37:46;3.10;;;0.77;;
37309;SDS011;23195;47.744;7.358;2024-02-23T00:40:15;1.83;;;0.70;;
37309;SDS011;23195;47.744;7.358;2024-02-23T00:42:41;2.83;;;0.60;;
37309;SDS011;23195;47.744;7.358;2024-02-23T00:45:07;1.23;;;0.63;;
37309;SDS011;23195;47.744;7.358;2024-02-23T00:47:33;1.33;;;0.40;;
37309;SDS011;23195;47.744;7.358;2024-02-23T00:50:00;2.73;;;0.97;;
37309;SDS011;23195;47.744;7.358;2024-02-23T00:52:27;2.80;;;0.40;;
37309;SDS011;23195;47.744;7.358;2024-02-23T00:54:52;3.73;;;0.53;;
37309;SDS011;23195;47.744;7.358;2024-02-23T00:57:18;1.20;;;0.30;;
37309;SDS011;23195;47.744;7.358;2024-02-23T00:59:51;2.40;;;0.53;;
37309;SDS011;23195;47.744;7.358;2024-02-23T01:02:16;1.90;;;0.47;;
37309;SDS011;23195;47.744;7.358;2024-02-23T01:04:47;1.93;;;0.50;;
37309;SDS011;23195;47.744;7.358;2024-02-23T01:07:13;3.17;;;0.60;;
37309;SDS011;23195;47.744;7.358;2024-02-23T01:09:39;6.30;;;0.97;;
37309;SDS011;23195;47.744;7.358;2024-02-23T01:12:05;2.80;;;0.40;;
37309;SDS011;23195;47.744;7.358;2024-02-23T01:14:31;1.53;;;0.40;;
37309;SDS011;23195;47.744;7.358;2024-02-23T01:16:59;4.20;;;0.60;;
37309;SDS011;23195;47.744;7.358;2024-02-23T01:19:25;2.43;;;0.63;;
37309;SDS011;23195;47.744;7.358;2024-02-23T01:21:51;1.77;;;0.50;;
37309;SDS011;23195;47.744;7.358;2024-02-23T01:24:24;2.70;;;0.50;;
37309;SDS011;23195;47.744;7.358;2024-02-23T01:27:02;3.07;;;0.60;;
37309;SDS011;23195;47.744;7.358;2024-02-23T01:29:28;3.07;;;0.90;;
37309;SDS011;23195;47.744;7.358;2024-02-23T01:31:58;0.87;;;0.40;;
37309;SDS011;23195;47.744;7.358;2024-02-23T01:34:33;0.87;;;0.40;;
37309;SDS011;23195;47.744;7.358;2024-02-23T01:36:59;1.30;;;0.40;;
37309;SDS011;23195;47.744;7.358;2024-02-23T01:39:25;2.83;;;0.50;;
37309;SDS011;23195;47.744;7.358;2024-02-23T01:41:51;1.33;;;0.40;;
37309;SDS011;23195;47.744;7.358;2024-02-23T01:44:23;3.13;;;0.63;;
37309;SDS011;23195;47.744;7.358;2024-02-23T01:46:51;3.63;;;0.50;;
37309;SDS011;23195;47.744;7.358;2024-02-23T01:49:17;4.03;;;0.67;;
37309;SDS011;23195;47.744;7.358;2024-02-23T01:51:46;2.13;;;0.50;;
37309;SDS011;23195;47.744;7.358;2024-02-23T01:54:16;2.03;;;0.53;;
37309;SDS011;23195;47.744;7.358;2024-02-23T01:56:42;3.77;;;0.70;;
37309;SDS011;23195;47.744;7.358;2024-02-23T01:59:08;1.40;;;0.40;;
37309;SDS011;23195;47.744;7.358;2024-02-23T02:01:37;3.00;;;0.40;;
37309;SDS011;23195;47.744;7.358;2024-02-23T02:04:03;1.33;;;0.50;;
37309;SDS011;23195;47.744;7.358;2024-02-23T02:06:29;1.87;;;0.57;;
37309;SDS011;23195;47.744;7.358;2024-02-23T02:08:55;3.60;;;0.57;;
37309;SDS011;23195;47.744;7.358;2024-02-23T02:11:21;1.50;;;0.40;;
37309;SDS011;23195;47.744;7.358;2024-02-23T02:13:46;2.03;;;0.33;;
37309;SDS011;23195;47.744;7.358;2024-02-23T02:16:12;3.10;;;0.63;;
37309;SDS011;23195;47.744;7.358;2024-02-23T02:18:38;2.37;;;0.60;;
37309;SDS011;23195;47.744;7.358;2024-02-23T02:21:04;1.83;;;0.70;;
37309;SDS011;23195;47.744;7.358;2024-02-23T02:23:30;2.90;;;0.73;;
37309;SDS011;23195;47.744;7.358;2024-02-23T02:25:56;3.13;;;0.80;;
37309;SDS011;23195;47.744;7.358;2024-02-23T02:28:23;1.53;;;0.60;;
37309;SDS011;23195;47.744;7.358;2024-02-23T02:30:49;2.00;;;0.77;;
37309;SDS011;23195;47.744;7.358;2024-02-23T02:33:19;3.70;;;0.77;;
37309;SDS011;23195;47.744;7.358;2024-02-23T02:35:48;2.87;;;0.80;;
37309;SDS011;23195;47.744;7.358;2024-02-23T02:38:15;2.50;;;0.70;;
37309;SDS011;23195;47.744;7.358;2024-02-23T02:40:41;2.80;;;1.00;;
37309;SDS011;23195;47.744;7.358;2024-02-23T02:43:10;2.03;;;0.50;;
37309;SDS011;23195;47.744;7.358;2024-02-23T02:45:35;2.60;;;0.90;;
37309;SDS011;23195;47.744;7.358;2024-02-23T02:48:01;4.00;;;1.37;;
37309;SDS011;23195;47.744;7.358;2024-02-23T02:50:28;4.07;;;1.00;;
37309;SDS011;23195;47.744;7.358;2024-02-23T02:52:54;5.33;;;0.67;;
37309;SDS011;23195;47.744;7.358;2024-02-23T02:55:22;4.43;;;1.00;;
37309;SDS011;23195;47.744;7.358;2024-02-23T02:57:48;4.13;;;0.83;;
37309;SDS011;23195;47.744;7.358;2024-02-23T03:00:23;4.87;;;0.80;;
37309;SDS011;23195;47.744;7.358;2024-02-23T03:02:49;3.57;;;0.90;;
37309;SDS011;23195;47.744;7.358;2024-02-23T03:05:18;1.53;;;0.70;;
37309;SDS011;23195;47.744;7.358;2024-02-23T03:07:46;3.00;;;0.67;;
37309;SDS011;23195;47.744;7.358;2024-02-23T03:10:12;2.53;;;0.70;;
37309;SDS011;23195;47.744;7.358;2024-02-23T03:12:40;4.73;;;0.87;;
37309;SDS011;23195;47.744;7.358;2024-02-23T03:15:07;5.67;;;0.70;;
37309;SDS011;23195;47.744;7.358;2024-02-23T03:17:34;2.00;;;0.60;;
37309;SDS011;23195;47.744;7.358;2024-02-23T03:20:03;6.10;;;0.80;;
37309;SDS011;23195;47.744;7.358;2024-02-23T03:22:36;1.67;;;0.63;;
37309;SDS011;23195;47.744;7.358;2024-02-23T03:25:03;2.40;;;0.67;;
37309;SDS011;23195;47.744;7.358;2024-02-23T03:27:33;3.80;;;0.70;;
37309;SDS011;23195;47.744;7.358;2024-02-23T03:30:02;7.20;;;0.70;;
37309;SDS011;23195;47.744;7.358;2024-02-23T03:32:28;5.57;;;0.97;;
37309;SDS011;23195;47.744;7.358;2024-02-23T03:35:01;3.93;;;0.73;;
37309;SDS011;23195;47.744;7.358;2024-02-23T03:37:28;4.83;;;0.90;;
37309;SDS011;23195;47.744;7.358;2024-02-23T03:39:54;3.13;;;0.70;;
37309;SDS011;23195;47.744;7.358;2024-02-23T03:42:20;2.67;;;0.70;;
37309;SDS011;23195;47.744;7.358;2024-02-23T03:44:45;3.43;;;0.83;;
37309;SDS011;23195;47.744;7.358;2024-02-23T03:47:14;5.77;;;0.83;;
37309;SDS011;23195;47.744;7.358;2024-02-23T03:49:39;6.67;;;1.10;;
37309;SDS011;23195;47.744;7.358;2024-02-23T03:52:05;2.37;;;0.43;;
37309;SDS011;23195;47.744;7.358;2024-02-23T03:54:31;2.47;;;0.80;;
37309;SDS011;23195;47.744;7.358;2024-02-23T03:56:57;7.87;;;0.90;;
37309;SDS011;23195;47.744;7.358;2024-02-23T03:59:23;4.40;;;0.70;;
37309;SDS011;23195;47.744;7.358;2024-02-23T04:01:52;6.50;;;0.90;;
37309;SDS011;23195;47.744;7.358;2024-02-23T04:04:18;7.40;;;1.00;;
37309;SDS011;23195;47.744;7.358;2024-02-23T04:06:44;7.57;;;1.10;;
37309;SDS011;23195;47.744;7.358;2024-02-23T04:09:10;2.87;;;1.00;;
37309;SDS011;23195;47.744;7.358;2024-02-23T04:11:35;2.53;;;1.00;;
37309;SDS011;23195;47.744;7.358;2024-02-23T04:14:01;10.77;;;0.90;;
37309;SDS011;23195;47.744;7.358;2024-02-23T04:16:27;6.20;;;0.80;;
37309;SDS011;23195;47.744;7.358;2024-02-23T04:18:53;7.17;;;1.13;;
37309;SDS011;23195;47.744;7.358;2024-02-23T04:21:19;7.43;;;0.83;;
37309;SDS011;23195;47.744;7.358;2024-02-23T04:23:45;6.07;;;1.13;;
37309;SDS011;23195;47.744;7.358;2024-02-23T04:26:11;6.17;;;0.80;;
37309;SDS011;23195;47.744;7.358;2024-02-23T04:28:43;3.37;;;0.90;;
37309;SDS011;23195;47.744;7.358;2024-02-23T04:31:15;4.70;;;0.70;;
37309;SDS011;23195;47.744;7.358;2024-02-23T04:33:41;2.83;;;0.63;;
37309;SDS011;23195;47.744;7.358;2024-02-23T04:36:06;5.03;;;0.90;;
37309;SDS011;23195;47.744;7.358;2024-02-23T04:38:33;7.00;;;1.47;;
37309;SDS011;23195;47.744;7.358;2024-02-23T04:41:02;4.10;;;0.70;;
37309;SDS011;23195;47.744;7.358;2024-02-23T04:43:33;7.23;;;1.33;;
37309;SDS011;23195;47.744;7.358;2024-02-23T04:45:58;6.63;;;0.80;;
37309;SDS011;23195;47.744;7.358;2024-02-23T04:48:32;5.67;;;1.10;;
37309;SDS011;23195;47.744;7.358;2024-02-23T04:51:01;9.67;;;1.10;;
37309;SDS011;23195;47.744;7.358;2024-02-23T04:53:27;4.57;;;0.80;;
37309;SDS011;23195;47.744;7.358;2024-02-23T04:55:53;7.87;;;1.00;;
37309;SDS011;23195;47.744;7.358;2024-02-23T04:58:19;5.53;;;0.87;;
37309;SDS011;23195;47.744;7.358;2024-02-23T05:00:49;3.20;;;0.73;;
37309;SDS011;23195;47.744;7.358;2024-02-23T05:03:17;4.70;;;1.07;;
37309;SDS011;23195;47.744;7.358;2024-02-23T05:05:43;5.43;;;0.83;;
37309;SDS011;23195;47.744;7.358;2024-02-23T05:08:11;3.90;;;1.00;;
37309;SDS011;23195;47.744;7.358;2024-02-23T05:10:40;5.20;;;1.20;;
37309;SDS011;23195;47.744;7.358;2024-02-23T05:13:09;7.40;;;1.17;;
37309;SDS011;23195;47.744;7.358;2024-02-23T05:15:35;4.23;;;1.23;;
37309;SDS011;23195;47.744;7.358;2024-02-23T05:18:03;3.80;;;1.67;;
37309;SDS011;23195;47.744;7.358;2024-02-23T05:20:36;8.27;;;2.07;;
37309;SDS011;23195;47.744;7.358;2024-02-23T05:23:02;4.80;;;1.80;;
37309;SDS011;23195;47.744;7.358;2024-02-23T05:25:28;5.93;;;1.40;;
37309;SDS011;23195;47.744;7.358;2024-02-23T05:27:53;6.87;;;1.30;;
37309;SDS011;23195;47.744;7.358;2024-02-23T05:30:19;4.87;;;1.10;;
37309;SDS011;23195;47.744;7.358;2024-02-23T05:32:48;7.27;;;1.17;;
37309;SDS011;23195;47.744;7.358;2024-02-23T05:35:14;10.13;;;1.17;;
37309;SDS011;23195;47.744;7.358;2024-02-23T05:37:40;6.17;;;1.30;;
37309;SDS011;23195;47.744;7.358;2024-02-23T05:40:07;9.87;;;1.47;;
37309;SDS011;23195;47.744;7.358;2024-02-23T05:42:36;8.47;;;1.30;;
37309;SDS011;23195;47.744;7.358;2024-02-23T05:45:02;7.70;;;1.60;;
37309;SDS011;23195;47.744;7.358;2024-02-23T05:47:34;5.43;;;1.10;;
37309;SDS011;23195;47.744;7.358;2024-02-23T05:50:01;3.07;;;0.90;;
37309;SDS011;23195;47.744;7.358;2024-02-23T05:52:30;10.07;;;1.73;;
37309;SDS011;23195;47.744;7.358;2024-02-23T05:54:56;6.67;;;1.10;;
37309;SDS011;23195;47.744;7.358;2024-02-23T05:57:31;6.97;;;0.93;;
37309;SDS011;23195;47.744;7.358;2024-02-23T05:59:57;5.30;;;1.00;;
37309;SDS011;23195;47.744;7.358;2024-02-23T06:02:23;8.47;;;1.20;;
37309;SDS011;23195;47.744;7.358;2024-02-23T06:04:52;5.80;;;0.90;;
37309;SDS011;23195;47.744;7.358;2024-02-23T06:07:17;6.13;;;1.20;;
37309;SDS011;23195;47.744;7.358;2024-02-23T06:09:46;6.50;;;1.20;;
37309;SDS011;23195;47.744;7.358;2024-02-23T06:12:11;4.70;;;1.57;;
37309;SDS011;23195;47.744;7.358;2024-02-23T06:14:37;12.17;;;1.80;;
37309;SDS011;23195;47.744;7.358;2024-02-23T06:17:03;9.50;;;2.00;;
37309;SDS011;23195;47.744;7.358;2024-02-23T06:19:29;8.73;;;2.30;;
37309;SDS011;23195;47.744;7.358;2024-02-23T06:21:55;9.07;;;2.10;;
37309;SDS011;23195;47.744;7.358;2024-02-23T06:24:20;9.60;;;1.70;;
37309;SDS011;23195;47.744;7.358;2024-02-23T06:26:46;15.47;;;3.17;;
37309;SDS011;23195;47.744;7.358;2024-02-23T06:29:14;13.13;;;3.60;;
37309;SDS011;23195;47.744;7.358;2024-02-23T06:31:40;15.00;;;3.67;;
37309;SDS011;23195;47.744;7.358;2024-02-23T06:34:06;10.60;;;2.67;;
37309;SDS011;23195;47.744;7.358;2024-02-23T06:36:36;16.90;;;4.30;;
37309;SDS011;23195;47.744;7.358;2024-02-23T06:39:02;15.80;;;5.63;;
37309;SDS011;23195;47.744;7.358;2024-02-23T06:41:28;13.73;;;4.30;;
37309;SDS011;23195;47.744;7.358;2024-02-23T06:43:54;9.07;;;3.00;;
37309;SDS011;23195;47.744;7.358;2024-02-23T06:46:20;6.30;;;2.00;;
37309;SDS011;23195;47.744;7.358;2024-02-23T06:48:46;5.70;;;2.30;;
37309;SDS011;23195;47.744;7.358;2024-02-23T06:51:14;4.93;;;1.80;;
37309;SDS011;23195;47.744;7.358;2024-02-23T06:53:41;6.00;;;1.70;;
37309;SDS011;23195;47.744;7.358;2024-02-23T06:56:09;4.13;;;1.80;;
37309;SDS011;23195;47.744;7.358;2024-02-23T06:58:42;7.17;;;2.07;;
37309;SDS011;23195;47.744;7.358;2024-02-23T07:01:08;4.37;;;1.70;;
37309;SDS011;23195;47.744;7.358;2024-02-23T07:03:37;5.07;;;1.80;;
37309;SDS011;23195;47.744;7.358;2024-02-23T07:06:05;8.10;;;1.47;;
37309;SDS011;23195;47.744;7.358;2024-02-23T07:08:30;3.73;;;1.50;;
37309;SDS011;23195;47.744;7.358;2024-02-23T07:10:56;4.40;;;1.50;;
37309;SDS011;23195;47.744;7.358;2024-02-23T07:13:22;9.50;;;1.70;;
37309;SDS011;23195;47.744;7.358;2024-02-23T07:15:48;7.13;;;2.00;;
37309;SDS011;23195;47.744;7.358;2024-02-23T07:18:13;7.43;;;1.60;;
37309;SDS011;23195;47.744;7.358;2024-02-23T07:20:41;5.20;;;1.97;;
37309;SDS011;23195;47.744;7.358;2024-02-23T07:23:06;4.07;;;1.70;;
37309;SDS011;23195;47.744;7.358;2024-02-23T07:25:34;6.63;;;2.10;;
37309;SDS011;23195;47.744;7.358;2024-02-23T07:28:00;8.47;;;2.63;;
37309;SDS011;23195;47.744;7.358;2024-02-23T07:30:25;3.80;;;2.03;;
37309;SDS011;23195;47.744;7.358;2024-02-23T07:32:51;7.07;;;1.90;;
37309;SDS011;23195;47.744;7.358;2024-02-23T07:35:17;10.97;;;3.07;;
37309;SDS011;23195;47.744;7.358;2024-02-23T07:37:43;7.73;;;2.30;;
37309;SDS011;23195;47.744;7.358;2024-02-23T07:40:12;10.37;;;3.20;;
37309;SDS011;23195;47.744;7.358;2024-02-23T07:42:40;6.27;;;2.23;;
37309;SDS011;23195;47.744;7.358;2024-02-23T07:45:06;7.63;;;2.57;;
37309;SDS011;23195;47.744;7.358;2024-02-23T07:47:34;8.80;;;2.27;;
37309;SDS011;23195;47.744;7.358;2024-02-23T07:50:03;8.73;;;1.60;;
37309;SDS011;23195;47.744;7.358;2024-02-23T07:52:29;11.73;;;1.70;;
37309;SDS011;23195;47.744;7.358;2024-02-23T07:54:55;4.83;;;1.73;;
37309;SDS011;23195;47.744;7.358;2024-02-23T07:57:20;5.43;;;1.20;;
37309;SDS011;23195;47.744;7.358;2024-02-23T07:59:46;7.93;;;1.40;;
37309;SDS011;23195;47.744;7.358;2024-02-23T08:02:14;4.27;;;1.47;;
37309;SDS011;23195;47.744;7.358;2024-02-23T08:04:40;4.30;;;1.53;;
37309;SDS011;23195;47.744;7.358;2024-02-23T08:07:07;4.93;;;1.67;;
37309;SDS011;23195;47.744;7.358;2024-02-23T08:09:33;5.47;;;1.20;;
37309;SDS011;23195;47.744;7.358;2024-02-23T08:11:59;4.37;;;1.40;;
37309;SDS011;23195;47.744;7.358;2024-02-23T08:14:25;7.33;;;1.43;;
37309;SDS011;23195;47.744;7.358;2024-02-23T08:16:58;3.40;;;1.27;;
37309;SDS011;23195;47.744;7.358;2024-02-23T08:19:24;4.23;;;1.17;;
37309;SDS011;23195;47.744;7.358;2024-02-23T08:21:53;4.80;;;1.00;;
37309;SDS011;23195;47.744;7.358;2024-02-23T08:24:22;6.57;;;1.70;;
37309;SDS011;23195;47.744;7.358;2024-02-23T08:26:48;5.03;;;1.60;;
37309;SDS011;23195;47.744;7.358;2024-02-23T08:29:13;6.37;;;1.10;;
37309;SDS011;23195;47.744;7.358;2024-02-23T08:31:39;5.67;;;1.40;;
37309;SDS011;23195;47.744;7.358;2024-02-23T08:34:05;6.40;;;1.60;;
37309;SDS011;23195;47.744;7.358;2024-02-23T08:36:31;6.77;;;1.30;;
37309;SDS011;23195;47.744;7.358;2024-02-23T08:38:57;5.90;;;1.30;;
37309;SDS011;23195;47.744;7.358;2024-02-23T08:41:23;4.83;;;1.43;;
37309;SDS011;23195;47.744;7.358;2024-02-23T08:43:49;6.67;;;1.80;;
37309;SDS011;23195;47.744;7.358;2024-02-23T08:46:15;6.80;;;2.10;;
37309;SDS011;23195;47.744;7.358;2024-02-23T08:48:44;9.80;;;2.07;;
37309;SDS011;23195;47.744;7.358;2024-02-23T08:51:10;6.03;;;1.80;;
37309;SDS011;23195;47.744;7.358;2024-02-23T08:53:43;6.27;;;1.90;;
37309;SDS011;23195;47.744;7.358;2024-02-23T08:56:09;6.87;;;1.70;;
37309;SDS011;23195;47.744;7.358;2024-02-23T08:58:39;6.37;;;1.90;;
37309;SDS011;23195;47.744;7.358;2024-02-23T09:01:05;7.70;;;1.77;;
37309;SDS011;23195;47.744;7.358;2024-02-23T09:03:31;10.90;;;2.87;;
37309;SDS011;23195;47.744;7.358;2024-02-23T09:05:57;6.47;;;1.70;;
37309;SDS011;23195;47.744;7.358;2024-02-23T09:08:23;6.83;;;2.30;;
37309;SDS011;23195;47.744;7.358;2024-02-23T09:10:49;6.70;;;2.13;;
37309;SDS011;23195;47.744;7.358;2024-02-23T09:13:18;9.60;;;2.10;;
37309;SDS011;23195;47.744;7.358;2024-02-23T09:15:44;5.73;;;1.90;;
37309;SDS011;23195;47.744;7.358;2024-02-23T09:18:10;12.23;;;2.10;;
37309;SDS011;23195;47.744;7.358;2024-02-23T09:20:39;5.37;;;1.90;;
37309;SDS011;23195;47.744;7.358;2024-02-23T09:23:05;11.57;;;1.67;;
37309;SDS011;23195;47.744;7.358;2024-02-23T09:25:31;8.40;;;1.50;;
37309;SDS011;23195;47.744;7.358;2024-02-23T09:27:57;6.37;;;2.33;;
37309;SDS011;23195;47.744;7.358;2024-02-23T09:30:23;8.33;;;1.63;;
37309;SDS011;23195;47.744;7.358;2024-02-23T09:32:52;4.30;;;1.40;;
37309;SDS011;23195;47.744;7.358;2024-02-23T09:35:19;7.90;;;2.10;;
37309;SDS011;23195;47.744;7.358;2024-02-23T09:37:45;7.33;;;1.90;;
37309;SDS011;23195;47.744;7.358;2024-02-23T09:40:10;9.23;;;2.20;;
37309;SDS011;23195;47.744;7.358;2024-02-23T09:42:36;11.87;;;3.30;;
37309;SDS011;23195;47.744;7.358;2024-02-23T09:45:04;7.23;;;2.40;;
37309;SDS011;23195;47.744;7.358;2024-02-23T09:47:32;7.77;;;1.97;;
37309;SDS011;23195;47.744;7.358;2024-02-23T09:49:57;5.93;;;1.30;;
37309;SDS011;23195;47.744;7.358;2024-02-23T09:52:28;9.63;;;1.47;;
37309;SDS011;23195;47.744;7.358;2024-02-23T09:54:57;6.47;;;1.13;;
37309;SDS011;23195;47.744;7.358;2024-02-23T09:57:23;9.13;;;1.60;;
37309;SDS011;23195;47.744;7.358;2024-02-23T09:59:49;7.73;;;1.20;;
37309;SDS011;23195;47.744;7.358;2024-02-23T10:02:16;4.73;;;1.17;;
37309;SDS011;23195;47.744;7.358;2024-02-23T10:04:43;4.03;;;1.30;;
37309;SDS011;23195;47.744;7.358;2024-02-23T10:07:14;6.50;;;1.63;;
37309;SDS011;23195;47.744;7.358;2024-02-23T10:09:43;10.33;;;1.47;;
37309;SDS011;23195;47.744;7.358;2024-02-23T10:12:08;5.23;;;1.50;;
37309;SDS011;23195;47.744;7.358;2024-02-23T10:14:34;11.07;;;1.40;;
37309;SDS011;23195;47.744;7.358;2024-02-23T10:17:00;5.83;;;1.53;;
37309;SDS011;23195;47.744;7.358;2024-02-23T10:19:27;7.33;;;1.30;;
37309;SDS011;23195;47.744;7.358;2024-02-23T10:21:54;7.33;;;1.73;;
37309;SDS011;23195;47.744;7.358;2024-02-23T10:24:22;6.43;;;1.30;;
37309;SDS011;23195;47.744;7.358;2024-02-23T10:26:48;7.67;;;1.83;;
37309;SDS011;23195;47.744;7.358;2024-02-23T10:29:14;11.10;;;1.77;;
37309;SDS011;23195;47.744;7.358;2024-02-23T10:31:40;8.20;;;1.53;;
37309;SDS011;23195;47.744;7.358;2024-02-23T10:34:08;7.20;;;1.57;;
37309;SDS011;23195;47.744;7.358;2024-02-23T10:36:37;8.67;;;1.50;;
37309;SDS011;23195;47.744;7.358;2024-02-23T10:39:10;8.37;;;1.63;;
37309;SDS011;23195;47.744;7.358;2024-02-23T10:41:42;6.80;;;1.63;;
37309;SDS011;23195;47.744;7.358;2024-02-23T10:44:12;9.07;;;1.30;;
37309;SDS011;23195;47.744;7.358;2024-02-23T10:46:41;9.10;;;1.87;;
37309;SDS011;23195;47.744;7.358;2024-02-23T10:49:07;10.50;;;1.63;;
37309;SDS011;23195;47.744;7.358;2024-02-23T10:51:33;8.93;;;1.67;;
37309;SDS011;23195;47.744;7.358;2024-02-23T10:54:00;10.70;;;2.13;;
37309;SDS011;23195;47.744;7.358;2024-02-23T10:56:27;9.70;;;1.53;;
37309;SDS011;23195;47.744;7.358;2024-02-23T10:58:53;8.63;;;1.53;;
37309;SDS011;23195;47.744;7.358;2024-02-23T11:01:20;7.40;;;1.80;;
37309;SDS011;23195;47.744;7.358;2024-02-23T11:03:48;9.93;;;1.77;;
37309;SDS011;23195;47.744;7.358;2024-02-23T11:06:16;5.27;;;1.50;;
37309;SDS011;23195;47.744;7.358;2024-02-23T11:08:46;12.13;;;2.30;;
37309;SDS011;23195;47.744;7.358;2024-02-23T11:11:16;8.83;;;1.80;;
37309;SDS011;23195;47.744;7.358;2024-02-23T11:13:45;5.43;;;1.43;;
37309;SDS011;23195;47.744;7.358;2024-02-23T11:16:12;11.10;;;1.57;;
37309;SDS011;23195;47.744;7.358;2024-02-23T11:18:48;9.77;;;1.97;;
37309;SDS011;23195;47.744;7.358;2024-02-23T11:21:14;8.10;;;1.60;;
37309;SDS011;23195;47.744;7.358;2024-02-23T11:23:43;8.20;;;1.60;;
37309;SDS011;23195;47.744;7.358;2024-02-23T11:26:13;6.77;;;1.40;;
37309;SDS011;23195;47.744;7.358;2024-02-23T11:28:52;8.07;;;1.20;;
37309;SDS011;23195;47.744;7.358;2024-02-23T11:31:22;7.57;;;2.13;;
37309;SDS011;23195;47.744;7.358;2024-02-23T11:33:49;4.73;;;1.20;;
37309;SDS011;23195;47.744;7.358;2024-02-23T11:36:24;6.27;;;1.73;;
37309;SDS011;23195;47.744;7.358;2024-02-23T11:38:54;7.47;;;1.10;;
37309;SDS011;23195;47.744;7.358;2024-02-23T11:41:22;7.40;;;1.27;;
37309;SDS011;23195;47.744;7.358;2024-02-23T11:43:49;9.87;;;1.80;;
37309;SDS011;23195;47.744;7.358;2024-02-23T11:46:20;6.40;;;1.27;;
37309;SDS011;23195;47.744;7.358;2024-02-23T11:48:47;4.77;;;1.00;;
37309;SDS011;23195;47.744;7.358;2024-02-23T11:51:18;4.80;;;1.03;;
37309;SDS011;23195;47.744;7.358;2024-02-23T11:53:46;5.27;;;1.13;;
37309;SDS011;23195;47.744;7.358;2024-02-23T11:56:16;4.13;;;1.00;;
37309;SDS011;23195;47.744;7.358;2024-02-23T11:58:43;7.83;;;1.63;;
37309;SDS011;23195;47.744;7.358;2024-02-23T12:01:09;6.53;;;1.30;;
37309;SDS011;23195;47.744;7.358;2024-02-23T12:03:35;5.73;;;1.30;;
37309;SDS011;23195;47.744;7.358;2024-02-23T12:06:01;5.70;;;1.23;;
37309;SDS011;23195;47.744;7.358;2024-02-23T12:08:29;5.30;;;1.83;;
37309;SDS011;23195;47.744;7.358;2024-02-23T12:11:00;7.07;;;2.00;;
37309;SDS011;23195;47.744;7.358;2024-02-23T12:13:30;5.27;;;1.47;;
37309;SDS011;23195;47.744;7.358;2024-02-23T12:15:56;4.83;;;1.00;;
37309;SDS011;23195;47.744;7.358;2024-02-23T12:18:22;4.23;;;1.17;;
37309;SDS011;23195;47.744;7.358;2024-02-23T12:20:51;4.23;;;0.90;;
37309;SDS011;23195;47.744;7.358;2024-02-23T12:23:23;4.10;;;1.03;;
37309;SDS011;23195;47.744;7.358;2024-02-23T12:25:59;6.97;;;2.30;;
37309;SDS011;23195;47.744;7.358;2024-02-23T12:28:25;7.83;;;2.13;;
37309;SDS011;23195;47.744;7.358;2024-02-23T12:31:01;5.10;;;1.20;;
37309;SDS011;23195;47.744;7.358;2024-02-23T12:33:28;3.77;;;1.17;;
37309;SDS011;23195;47.744;7.358;2024-02-23T12:35:56;6.53;;;1.10;;
37309;SDS011;23195;47.744;7.358;2024-02-23T12:38:23;4.20;;;1.40;;
37309;SDS011;23195;47.744;7.358;2024-02-23T12:40:50;5.97;;;1.73;;
37309;SDS011;23195;47.744;7.358;2024-02-23T12:43:16;6.30;;;1.50;;
37309;SDS011;23195;47.744;7.358;2024-02-23T12:45:52;6.17;;;1.60;;
37309;SDS011;23195;47.744;7.358;2024-02-23T12:48:19;3.90;;;1.03;;
37309;SDS011;23195;47.744;7.358;2024-02-23T12:50:52;6.00;;;1.50;;
37309;SDS011;23195;47.744;7.358;2024-02-23T12:55:59;5.53;;;1.53;;
37309;SDS011;23195;47.744;7.358;2024-02-23T12:58:26;3.57;;;1.10;;
37309;SDS011;23195;47.744;7.358;2024-02-23T13:00:55;2.70;;;0.70;;
37309;SDS011;23195;47.744;7.358;2024-02-23T13:03:21;2.10;;;0.73;;
37309;SDS011;23195;47.744;7.358;2024-02-23T13:05:48;4.53;;;0.93;;
37309;SDS011;23195;47.744;7.358;2024-02-23T13:08:16;3.20;;;1.10;;
37309;SDS011;23195;47.744;7.358;2024-02-23T13:10:43;2.20;;;1.13;;
37309;SDS011;23195;47.744;7.358;2024-02-23T13:13:09;3.43;;;0.90;;
37309;SDS011;23195;47.744;7.358;2024-02-23T13:15:34;2.37;;;1.10;;
37309;SDS011;23195;47.744;7.358;2024-02-23T13:18:02;4.03;;;0.80;;
37309;SDS011;23195;47.744;7.358;2024-02-23T13:20:29;2.13;;;0.80;;
37309;SDS011;23195;47.744;7.358;2024-02-23T13:22:55;4.27;;;0.60;;
37309;SDS011;23195;47.744;7.358;2024-02-23T13:25:21;2.40;;;0.43;;
37309;SDS011;23195;47.744;7.358;2024-02-23T13:27:47;1.93;;;0.90;;
37309;SDS011;23195;47.744;7.358;2024-02-23T13:30:13;1.60;;;0.77;;
37309;SDS011;23195;47.744;7.358;2024-02-23T13:32:39;4.03;;;0.80;;
37309;SDS011;23195;47.744;7.358;2024-02-23T13:35:05;2.23;;;0.60;;
37309;SDS011;23195;47.744;7.358;2024-02-23T13:37:31;5.87;;;1.43;;
37309;SDS011;23195;47.744;7.358;2024-02-23T13:39:58;2.67;;;0.93;;
37309;SDS011;23195;47.744;7.358;2024-02-23T13:42:24;8.20;;;3.47;;
37309;SDS011;23195;47.744;7.358;2024-02-23T13:44:49;5.30;;;1.80;;
37309;SDS011;23195;47.744;7.358;2024-02-23T13:47:15;2.73;;;1.00;;
37309;SDS011;23195;47.744;7.358;2024-02-23T13:49:42;3.97;;;1.50;;
37309;SDS011;23195;47.744;7.358;2024-02-23T13:52:08;3.33;;;0.97;;
37309;SDS011;23195;47.744;7.358;2024-02-23T13:54:34;4.10;;;0.70;;
37309;SDS011;23195;47.744;7.358;2024-02-23T13:56:59;2.63;;;0.70;;
37309;SDS011;23195;47.744;7.358;2024-02-23T13:59:25;1.93;;;0.57;;
37309;SDS011;23195;47.744;7.358;2024-02-23T14:01:51;4.50;;;0.60;;
37309;SDS011;23195;47.744;7.358;2024-02-23T14:04:19;2.67;;;0.93;;
37309;SDS011;23195;47.744;7.358;2024-02-23T14:06:45;1.83;;;0.67;;
37309;SDS011;23195;47.744;7.358;2024-02-23T14:09:10;1.50;;;0.70;;
37309;SDS011;23195;47.744;7.358;2024-02-23T14:11:36;2.03;;;0.80;;
37309;SDS011;23195;47.744;7.358;2024-02-23T14:14:02;3.47;;;0.97;;
37309;SDS011;23195;47.744;7.358;2024-02-23T14:16:32;1.70;;;0.70;;
37309;SDS011;23195;47.744;7.358;2024-02-23T14:18:58;5.37;;;0.53;;
37309;SDS011;23195;47.744;7.358;2024-02-23T14:21:24;2.70;;;0.73;;
37309;SDS011;23195;47.744;7.358;2024-02-23T14:23:50;4.13;;;0.70;;
37309;SDS011;23195;47.744;7.358;2024-02-23T14:26:16;2.63;;;0.77;;
37309;SDS011;23195;47.744;7.358;2024-02-23T14:28:42;2.27;;;0.73;;
37309;SDS011;23195;47.744;7.358;2024-02-23T14:31:10;2.30;;;0.60;;
37309;SDS011;23195;47.744;7.358;2024-02-23T14:33:36;5.33;;;0.67;;
37309;SDS011;23195;47.744;7.358;2024-02-23T14:36:02;3.17;;;0.93;;
37309;SDS011;23195;47.744;7.358;2024-02-23T14:38:28;2.57;;;1.07;;
37309;SDS011;23195;47.744;7.358;2024-02-23T14:40:53;1.80;;;1.00;;
37309;SDS011;23195;47.744;7.358;2024-02-23T14:43:19;2.13;;;0.80;;
37309;SDS011;23195;47.744;7.358;2024-02-23T14:45:45;2.27;;;0.60;;
37309;SDS011;23195;47.744;7.358;2024-02-23T14:48:11;5.80;;;1.70;;
37309;SDS011;23195;47.744;7.358;2024-02-23T14:50:37;3.97;;;0.90;;